sensor_id;sensor_type;location;lat;lon;timestamp;pressure;altitude;pressure_sealevel;temperature;humidity
64253;BME280;50592;52.958;-7.470;2023-02-18T00:00:14;100668.28;;;10.51;100.00
64253;BME280;50592;52.958;-7.470;2023-02-18T00:02:42;100658.97;;;10.47;100.00
64253;BME280;50592;52.958;-7.470;2023-02-18T00:05:09;100656.19;;;10.49;100.00
64253;BME280;50592;52.958;-7.470;2023-02-18T00:07:36;100657.84;;;10.50;100.00
64253;BME280;50592;52.958;-7.470;2023-02-18T00:10:03;100649.78;;;10.51;100.00
64253;BME280;50592;52.958;-7.470;2023-02-18T00:12:30;100653.53;;;10.49;100.00
64253;BME280;50592;52.958;-7.470;2023-02-18T00:14:57;100647.97;;;10.52;100.00
64253;BME280;50592;52.958;-7.470;2023-02-18T00:17:23;100641.84;;;10.51;100.00
64253;BME280;50592;52.958;-7.470;2023-02-18T00:19:48;100644.50;;;10.51;100.00
64253;BME280;50592;52.958;-7.470;2023-02-18T00:22:15;100634.63;;;10.53;100.00
64253;BME280;50592;52.958;-7.470;2023-02-18T00:24:40;100633.09;;;10.51;100.00
64253;BME280;50592;52.958;-7.470;2023-02-18T00:27:06;100633.63;;;10.54;100.00
64253;BME280;50592;52.958;-7.470;2023-02-18T00:29:32;100644.91;;;10.57;100.00
64253;BME280;50592;52.958;-7.470;2023-02-18T00:31:59;100641.16;;;10.59;100.00
64253;BME280;50592;52.958;-7.470;2023-02-18T00:34:25;100642.97;;;10.59;100.00
64253;BME280;50592;52.958;-7.470;2023-02-18T00:36:51;100646.28;;;10.61;100.00
64253;BME280;50592;52.958;-7.470;2023-02-18T00:39:17;100642.84;;;10.60;100.00
64253;BME280;50592;52.958;-7.470;2023-02-18T00:41:43;100634.06;;;10.60;100.00
64253;BME280;50592;52.958;-7.470;2023-02-18T00:44:10;100642.41;;;10.65;100.00
64253;BME280;50592;52.958;-7.470;2023-02-18T00:46:37;100641.44;;;10.66;100.00
64253;BME280;50592;52.958;-7.470;2023-02-18T00:49:05;100647.72;;;10.65;100.00
64253;BME280;50592;52.958;-7.470;2023-02-18T00:51:31;100639.78;;;10.65;100.00
64253;BME280;50592;52.958;-7.470;2023-02-18T00:53:57;100634.50;;;10.65;100.00
64253;BME280;50592;52.958;-7.470;2023-02-18T00:56:23;100646.84;;;10.64;100.00
64253;BME280;50592;52.958;-7.470;2023-02-18T00:58:49;100635.31;;;10.65;100.00
64253;BME280;50592;52.958;-7.470;2023-02-18T01:01:17;100641.44;;;10.66;100.00
64253;BME280;50592;52.958;-7.470;2023-02-18T01:03:44;100635.31;;;10.65;100.00
64253;BME280;50592;52.958;-7.470;2023-02-18T01:06:11;100637.84;;;10.67;100.00
64253;BME280;50592;52.958;-7.470;2023-02-18T01:08:37;100639.63;;;10.66;100.00
64253;BME280;50592;52.958;-7.470;2023-02-18T01:11:05;100635.19;;;10.67;100.00
64253;BME280;50592;52.958;-7.470;2023-02-18T01:13:32;100627.94;;;10.69;100.00
64253;BME280;50592;52.958;-7.470;2023-02-18T01:15:58;100628.78;;;10.70;100.00
64253;BME280;50592;52.958;-7.470;2023-02-18T01:18:25;100614.44;;;10.72;100.00
64253;BME280;50592;52.958;-7.470;2023-02-18T01:20:51;100613.75;;;10.70;100.00
64253;BME280;50592;52.958;-7.470;2023-02-18T01:23:17;100628.63;;;10.71;100.00
64253;BME280;50592;52.958;-7.470;2023-02-18T01:25:44;100628.50;;;10.73;100.00
64253;BME280;50592;52.958;-7.470;2023-02-18T01:28:11;100627.38;;;10.75;100.00
64253;BME280;50592;52.958;-7.470;2023-02-18T01:30:37;100634.63;;;10.73;100.00
64253;BME280;50592;52.958;-7.470;2023-02-18T01:33:03;100632.78;;;10.74;100.00
64253;BME280;50592;52.958;-7.470;2023-02-18T01:35:30;100626.41;;;10.76;100.00
64253;BME280;50592;52.958;-7.470;2023-02-18T01:37:56;100645.72;;;10.77;100.00
64253;BME280;50592;52.958;-7.470;2023-02-18T01:40:27;100640.03;;;10.82;100.00
64253;BME280;50592;52.958;-7.470;2023-02-18T01:42:53;100633.06;;;10.81;100.00
64253;BME280;50592;52.958;-7.470;2023-02-18T01:53:41;100638.88;;;10.94;100.00
64253;BME280;50592;52.958;-7.470;2023-02-18T01:56:13;100630.69;;;10.97;100.00
64253;BME280;50592;52.958;-7.470;2023-02-18T01:58:41;100644.44;;;11.01;100.00
64253;BME280;50592;52.958;-7.470;2023-02-18T02:01:08;100639.72;;;11.04;100.00
64253;BME280;50592;52.958;-7.470;2023-02-18T02:03:34;100638.72;;;11.06;100.00
64253;BME280;50592;52.958;-7.470;2023-02-18T02:06:00;100642.06;;;11.08;100.00
64253;BME280;50592;52.958;-7.470;2023-02-18T02:08:27;100653.50;;;11.08;100.00
64253;BME280;50592;52.958;-7.470;2023-02-18T02:18:57;100658.94;;;11.07;100.00
64253;BME280;50592;52.958;-7.470;2023-02-18T02:22:37;100660.31;;;11.11;100.00
64253;BME280;50592;52.958;-7.470;2023-02-18T02:36:18;100647.22;;;11.09;100.00
64253;BME280;50592;52.958;-7.470;2023-02-18T02:38:55;100641.94;;;11.09;100.00
64253;BME280;50592;52.958;-7.470;2023-02-18T02:44:20;100647.50;;;11.06;100.00
64253;BME280;50592;52.958;-7.470;2023-02-18T02:46:50;100649.16;;;11.07;100.00
64253;BME280;50592;52.958;-7.470;2023-02-18T02:52:21;100633.28;;;11.07;100.00
64253;BME280;50592;52.958;-7.470;2023-02-18T02:54:48;100639.03;;;11.02;100.00
64253;BME280;50592;52.958;-7.470;2023-02-18T03:00:06;100640.84;;;11.02;100.00
64253;BME280;50592;52.958;-7.470;2023-02-18T03:05:43;100654.22;;;11.00;100.00
64253;BME280;50592;52.958;-7.470;2023-02-18T03:08:20;100650.59;;;11.01;100.00
64253;BME280;50592;52.958;-7.470;2023-02-18T03:11:03;100668.25;;;11.01;100.00
64253;BME280;50592;52.958;-7.470;2023-02-18T03:24:23;100671.19;;;10.88;100.00
64253;BME280;50592;52.958;-7.470;2023-02-18T03:26:55;100667.44;;;10.81;100.00
64253;BME280;50592;52.958;-7.470;2023-02-18T03:29:25;100672.31;;;10.75;100.00
64253;BME280;50592;52.958;-7.470;2023-02-18T03:31:59;100660.94;;;10.75;100.00
64253;BME280;50592;52.958;-7.470;2023-02-18T03:34:29;100669.13;;;10.72;100.00
64253;BME280;50592;52.958;-7.470;2023-02-18T03:36:57;100667.59;;;10.69;100.00
64253;BME280;50592;52.958;-7.470;2023-02-18T03:39:27;100676.66;;;10.66;100.00
64253;BME280;50592;52.958;-7.470;2023-02-18T03:41:54;100684.00;;;10.63;100.00
64253;BME280;50592;52.958;-7.470;2023-02-18T03:44:20;100673.72;;;10.60;100.00
64253;BME280;50592;52.958;-7.470;2023-02-18T03:46:46;100673.72;;;10.60;100.00
64253;BME280;50592;52.958;-7.470;2023-02-18T03:49:13;100668.44;;;10.60;100.00
64253;BME280;50592;52.958;-7.470;2023-02-18T03:51:40;100677.34;;;10.59;100.00
64253;BME280;50592;52.958;-7.470;2023-02-18T03:54:07;100669.41;;;10.59;100.00
64253;BME280;50592;52.958;-7.470;2023-02-18T03:56:34;100672.19;;;10.57;100.00
64253;BME280;50592;52.958;-7.470;2023-02-18T03:59:00;100668.00;;;10.54;100.00
64253;BME280;50592;52.958;-7.470;2023-02-18T04:01:26;100668.00;;;10.54;100.00
64253;BME280;50592;52.958;-7.470;2023-02-18T04:03:53;100656.75;;;10.52;100.00
64253;BME280;50592;52.958;-7.470;2023-02-18T04:06:23;100661.91;;;10.54;100.00
64253;BME280;50592;52.958;-7.470;2023-02-18T04:08:49;100655.91;;;10.52;100.00
64253;BME280;50592;52.958;-7.470;2023-02-18T04:11:15;100657.56;;;10.53;100.00
64253;BME280;50592;52.958;-7.470;2023-02-18T04:13:41;100652.56;;;10.50;100.00
64253;BME280;50592;52.958;-7.470;2023-02-18T04:16:07;100658.97;;;10.47;100.00
64253;BME280;50592;52.958;-7.470;2023-02-18T04:18:32;100655.72;;;10.43;100.00
64253;BME280;50592;52.958;-7.470;2023-02-18T04:20:58;100656.16;;;10.39;100.00
64253;BME280;50592;52.958;-7.470;2023-02-18T04:23:24;100658.66;;;10.40;100.00
64253;BME280;50592;52.958;-7.470;2023-02-18T04:25:51;100653.09;;;10.43;100.00
64253;BME280;50592;52.958;-7.470;2023-02-18T04:28:16;100635.72;;;10.41;100.00
64253;BME280;50592;52.958;-7.470;2023-02-18T04:30:43;100649.75;;;10.41;100.00
64253;BME280;50592;52.958;-7.470;2023-02-18T04:33:09;100638.63;;;10.38;100.00
64253;BME280;50592;52.958;-7.470;2023-02-18T04:35:35;100658.09;;;10.37;100.00
64253;BME280;50592;52.958;-7.470;2023-02-18T04:38:02;100658.22;;;10.35;100.00
64253;BME280;50592;52.958;-7.470;2023-02-18T04:40:28;100657.53;;;10.33;100.00
64253;BME280;50592;52.958;-7.470;2023-02-18T04:42:58;100669.78;;;10.34;100.00
64253;BME280;50592;52.958;-7.470;2023-02-18T04:45:25;100653.34;;;10.30;100.00
64253;BME280;50592;52.958;-7.470;2023-02-18T04:47:51;100658.78;;;10.29;100.00
64253;BME280;50592;52.958;-7.470;2023-02-18T04:50:18;100661.69;;;10.26;100.00
64253;BME280;50592;52.958;-7.470;2023-02-18T04:52:44;100653.75;;;10.26;100.00
64253;BME280;50592;52.958;-7.470;2023-02-18T04:55:09;100659.03;;;10.26;100.00
64253;BME280;50592;52.958;-7.470;2023-02-18T04:57:35;100665.31;;;10.25;100.00
64253;BME280;50592;52.958;-7.470;2023-02-18T05:00:03;100676.59;;;10.27;100.00
64253;BME280;50592;52.958;-7.470;2023-02-18T05:02:32;100674.75;;;10.27;100.00
64253;BME280;50592;52.958;-7.470;2023-02-18T05:04:58;100668.94;;;10.24;100.00
64253;BME280;50592;52.958;-7.470;2023-02-18T05:07:23;100674.22;;;10.24;100.00
64253;BME280;50592;52.958;-7.470;2023-02-18T05:09:49;100674.75;;;10.27;100.00
64253;BME280;50592;52.958;-7.470;2023-02-18T05:12:15;100670.19;;;10.29;100.00
64253;BME280;50592;52.958;-7.470;2023-02-18T05:14:41;100666.41;;;10.32;100.00
64253;BME280;50592;52.958;-7.470;2023-02-18T05:17:07;100676.84;;;10.34;100.00
64253;BME280;50592;52.958;-7.470;2023-02-18T05:19:32;100667.25;;;10.33;100.00
64253;BME280;50592;52.958;-7.470;2023-02-18T05:21:59;100678.25;;;10.38;100.00
64253;BME280;50592;52.958;-7.470;2023-02-18T05:24:26;100677.69;;;10.34;100.00
64253;BME280;50592;52.958;-7.470;2023-02-18T05:26:52;100670.47;;;10.36;100.00
64253;BME280;50592;52.958;-7.470;2023-02-18T05:29:17;100677.56;;;10.36;100.00
64253;BME280;50592;52.958;-7.470;2023-02-18T05:31:43;100672.28;;;10.36;100.00
64253;BME280;50592;52.958;-7.470;2023-02-18T05:34:09;100659.06;;;10.36;100.00
64253;BME280;50592;52.958;-7.470;2023-02-18T05:36:35;100672.84;;;10.39;100.00
64253;BME280;50592;52.958;-7.470;2023-02-18T05:39:00;100672.56;;;10.42;100.00
64253;BME280;50592;52.958;-7.470;2023-02-18T05:41:27;100662.69;;;10.45;100.00
64253;BME280;50592;52.958;-7.470;2023-02-18T05:43:52;100668.81;;;10.45;100.00
64253;BME280;50592;52.958;-7.470;2023-02-18T05:46:37;100669.06;;;10.42;100.00
64253;BME280;50592;52.958;-7.470;2023-02-18T05:49:03;100660.34;;;10.41;100.00
64253;BME280;50592;52.958;-7.470;2023-02-18T05:51:29;100657.84;;;10.40;100.00
64253;BME280;50592;52.958;-7.470;2023-02-18T05:53:55;100667.41;;;10.41;100.00
64253;BME280;50592;52.958;-7.470;2023-02-18T05:56:20;100671.72;;;10.42;100.00
64253;BME280;50592;52.958;-7.470;2023-02-18T05:58:46;100668.94;;;10.43;100.00
64253;BME280;50592;52.958;-7.470;2023-02-18T06:01:12;100662.28;;;10.39;100.00
64253;BME280;50592;52.958;-7.470;2023-02-18T06:03:38;100658.91;;;10.37;100.00
64253;BME280;50592;52.958;-7.470;2023-02-18T06:06:04;100661.69;;;10.36;100.00
64253;BME280;50592;52.958;-7.470;2023-02-18T06:08:30;100652.78;;;10.37;100.00
64253;BME280;50592;52.958;-7.470;2023-02-18T06:10:55;100664.34;;;10.36;100.00
64253;BME280;50592;52.958;-7.470;2023-02-18T06:13:21;100665.19;;;10.36;100.00
64253;BME280;50592;52.958;-7.470;2023-02-18T06:15:50;100670.34;;;10.38;100.00
64253;BME280;50592;52.958;-7.470;2023-02-18T06:18:16;100663.63;;;10.34;100.00
64253;BME280;50592;52.958;-7.470;2023-02-18T06:20:43;100674.78;;;10.37;100.00
64253;BME280;50592;52.958;-7.470;2023-02-18T06:23:08;100677.69;;;10.34;100.00
64253;BME280;50592;52.958;-7.470;2023-02-18T06:25:34;100676.72;;;10.35;100.00
64253;BME280;50592;52.958;-7.470;2023-02-18T06:28:00;100673.25;;;10.35;100.00
64253;BME280;50592;52.958;-7.470;2023-02-18T06:30:26;100674.22;;;10.34;100.00
64253;BME280;50592;52.958;-7.470;2023-02-18T06:32:52;100674.34;;;10.32;100.00
64253;BME280;50592;52.958;-7.470;2023-02-18T06:35:18;100670.19;;;10.29;100.00
64253;BME280;50592;52.958;-7.470;2023-02-18T06:37:44;100679.38;;;10.25;100.00
64253;BME280;50592;52.958;-7.470;2023-02-18T06:40:10;100675.16;;;10.23;100.00
64253;BME280;50592;52.958;-7.470;2023-02-18T06:42:36;100684.91;;;10.22;100.00
64253;BME280;50592;52.958;-7.470;2023-02-18T06:45:02;100695.34;;;10.24;100.00
64253;BME280;50592;52.958;-7.470;2023-02-18T06:47:28;100692.28;;;10.18;100.00
64253;BME280;50592;52.958;-7.470;2023-02-18T06:49:54;100691.44;;;10.18;100.00
64253;BME280;50592;52.958;-7.470;2023-02-18T06:52:19;100690.03;;;10.14;100.00
64253;BME280;50592;52.958;-7.470;2023-02-18T06:54:45;100687.09;;;10.07;100.00
64253;BME280;50592;52.958;-7.470;2023-02-18T06:57:11;100688.34;;;10.03;100.00
64253;BME280;50592;52.958;-7.470;2023-02-18T06:59:37;100684.41;;;9.97;100.00
64253;BME280;50592;52.958;-7.470;2023-02-18T07:02:03;100680.25;;;9.95;100.00
64253;BME280;50592;52.958;-7.470;2023-02-18T07:04:28;100678.16;;;9.88;100.00
64253;BME280;50592;52.958;-7.470;2023-02-18T07:06:54;100676.63;;;9.86;100.00
64253;BME280;50592;52.958;-7.470;2023-02-18T07:09:20;100680.09;;;9.86;100.00
64253;BME280;50592;52.958;-7.470;2023-02-18T07:11:46;100674.13;;;9.84;100.00
64253;BME280;50592;52.958;-7.470;2023-02-18T07:14:12;100683.13;;;9.82;100.00
64253;BME280;50592;52.958;-7.470;2023-02-18T07:16:38;100692.69;;;9.83;100.00
64253;BME280;50592;52.958;-7.470;2023-02-18T07:19:03;100689.25;;;9.82;100.00
64253;BME280;50592;52.958;-7.470;2023-02-18T07:21:29;100695.34;;;9.83;100.00
64253;BME280;50592;52.958;-7.470;2023-02-18T07:23:55;100699.69;;;9.84;100.00
64253;BME280;50592;52.958;-7.470;2023-02-18T07:26:21;100697.03;;;9.84;100.00
64253;BME280;50592;52.958;-7.470;2023-02-18T07:28:47;100699.53;;;9.85;100.00
64253;BME280;50592;52.958;-7.470;2023-02-18T07:31:12;100696.78;;;9.87;100.00
64253;BME280;50592;52.958;-7.470;2023-02-18T07:33:38;100693.16;;;9.88;100.00
64253;BME280;50592;52.958;-7.470;2023-02-18T07:36:05;100693.16;;;9.88;100.00
64253;BME280;50592;52.958;-7.470;2023-02-18T07:38:31;100693.84;;;9.90;100.00
64253;BME280;50592;52.958;-7.470;2023-02-18T07:40:57;100698.03;;;9.92;100.00
64253;BME280;50592;52.958;-7.470;2023-02-18T07:43:23;100704.28;;;9.91;100.00
64253;BME280;50592;52.958;-7.470;2023-02-18T07:45:49;100699.00;;;9.91;100.00
64253;BME280;50592;52.958;-7.470;2023-02-18T07:48:15;100707.63;;;9.93;100.00
64253;BME280;50592;52.958;-7.470;2023-02-18T07:50:42;100699.84;;;9.92;100.00
64253;BME280;50592;52.958;-7.470;2023-02-18T07:53:10;100701.66;;;9.91;100.00
64253;BME280;50592;52.958;-7.470;2023-02-18T07:55:37;100700.25;;;9.87;100.00
64253;BME280;50592;52.958;-7.470;2023-02-18T07:58:24;100709.97;;;9.87;100.00
64253;BME280;50592;52.958;-7.470;2023-02-18T08:00:51;100705.22;;;9.80;100.00
64253;BME280;50592;52.958;-7.470;2023-02-18T08:03:23;100717.44;;;9.82;100.00
64253;BME280;50592;52.958;-7.470;2023-02-18T08:05:50;100723.69;;;9.80;100.00
64253;BME280;50592;52.958;-7.470;2023-02-18T08:08:18;100722.72;;;9.82;100.00
64253;BME280;50592;52.958;-7.470;2023-02-18T08:10:46;100723.44;;;9.84;100.00
64253;BME280;50592;52.958;-7.470;2023-02-18T08:13:12;100728.44;;;9.87;100.00
64253;BME280;50592;52.958;-7.470;2023-02-18T08:15:38;100727.88;;;9.83;100.00
64253;BME280;50592;52.958;-7.470;2023-02-18T08:18:06;100724.28;;;9.84;100.00
64253;BME280;50592;52.958;-7.470;2023-02-18T08:20:36;100715.50;;;9.84;100.00
64253;BME280;50592;52.958;-7.470;2023-02-18T08:23:03;100724.66;;;9.79;100.00
64253;BME280;50592;52.958;-7.470;2023-02-18T08:25:29;100724.78;;;9.78;100.00
64253;BME280;50592;52.958;-7.470;2023-02-18T08:27:55;100734.41;;;9.79;100.00
64253;BME280;50592;52.958;-7.470;2023-02-18T08:30:21;100726.59;;;9.77;100.00
64253;BME280;50592;52.958;-7.470;2023-02-18T08:32:47;100725.19;;;9.73;100.00
64253;BME280;50592;52.958;-7.470;2023-02-18T08:35:13;100739.63;;;9.69;100.00
64253;BME280;50592;52.958;-7.470;2023-02-18T08:37:39;100729.78;;;9.71;100.00
64253;BME280;50592;52.958;-7.470;2023-02-18T08:40:05;100726.03;;;9.74;100.00
64253;BME280;50592;52.958;-7.470;2023-02-18T08:42:31;100742.72;;;9.74;100.00
64253;BME280;50592;52.958;-7.470;2023-02-18T08:44:57;100743.25;;;9.78;100.00
64253;BME280;50592;52.958;-7.470;2023-02-18T08:47:23;100743.00;;;9.81;100.00
64253;BME280;50592;52.958;-7.470;2023-02-18T08:49:49;100752.47;;;9.84;100.00
64253;BME280;50592;52.958;-7.470;2023-02-18T08:52:14;100752.47;;;9.84;100.00
64253;BME280;50592;52.958;-7.470;2023-02-18T08:54:40;100756.78;;;9.85;100.00
64253;BME280;50592;52.958;-7.470;2023-02-18T08:57:06;100752.94;;;9.89;100.00
64253;BME280;50592;52.958;-7.470;2023-02-18T08:59:32;100748.47;;;9.89;100.00
64253;BME280;50592;52.958;-7.470;2023-02-18T09:01:58;100758.88;;;9.91;100.00
64253;BME280;50592;52.958;-7.470;2023-02-18T09:04:24;100759.75;;;9.91;100.00
64253;BME280;50592;52.958;-7.470;2023-02-18T09:06:50;100769.19;;;9.94;100.00
64253;BME280;50592;52.958;-7.470;2023-02-18T09:09:17;100775.19;;;9.96;100.00
64253;BME280;50592;52.958;-7.470;2023-02-18T09:11:43;100772.28;;;9.99;100.00
64253;BME280;50592;52.958;-7.470;2023-02-18T09:14:09;100781.72;;;10.02;100.00
64253;BME280;50592;52.958;-7.470;2023-02-18T09:16:35;100775.50;;;10.03;100.00
64253;BME280;50592;52.958;-7.470;2023-02-18T09:19:03;100776.19;;;10.05;100.00
64253;BME280;50592;52.958;-7.470;2023-02-18T09:21:29;100777.47;;;10.11;100.00
64253;BME280;50592;52.958;-7.470;2023-02-18T09:23:54;100773.13;;;10.10;100.00
64253;BME280;50592;52.958;-7.470;2023-02-18T09:26:21;100780.81;;;10.13;100.00
64253;BME280;50592;52.958;-7.470;2023-02-18T09:28:52;100783.34;;;10.14;100.00
64253;BME280;50592;52.958;-7.470;2023-02-18T09:31:21;100781.50;;;10.15;100.00
64253;BME280;50592;52.958;-7.470;2023-02-18T09:33:53;100788.47;;;10.16;100.00
64253;BME280;50592;52.958;-7.470;2023-02-18T09:36:19;100791.38;;;10.13;100.00
64253;BME280;50592;52.958;-7.470;2023-02-18T09:38:46;100795.25;;;10.09;100.00
64253;BME280;50592;52.958;-7.470;2023-02-18T09:41:42;100796.34;;;10.06;100.00
64253;BME280;50592;52.958;-7.470;2023-02-18T09:46:41;100800.34;;;10.00;100.00
64253;BME280;50592;52.958;-7.470;2023-02-18T09:49:14;100802.31;;;9.98;100.00
64253;BME280;50592;52.958;-7.470;2023-02-18T09:51:41;100788.06;;;9.89;100.00
64253;BME280;50592;52.958;-7.470;2023-02-18T09:54:13;100794.31;;;9.88;100.00
64253;BME280;50592;52.958;-7.470;2023-02-18T09:56:40;100800.59;;;9.87;100.00
64253;BME280;50592;52.958;-7.470;2023-02-18T09:59:13;100804.88;;;9.88;100.00
64253;BME280;50592;52.958;-7.470;2023-02-18T10:01:41;100813.41;;;9.92;100.00
64253;BME280;50592;52.958;-7.470;2023-02-18T10:04:28;100813.25;;;9.93;100.00
64253;BME280;50592;52.958;-7.470;2023-02-18T10:06:57;100816.44;;;9.97;100.00
64253;BME280;50592;52.958;-7.470;2023-02-18T10:09:37;100812.16;;;9.96;100.00
64253;BME280;50592;52.958;-7.470;2023-02-18T10:12:13;100810.78;;;10.02;100.00
64253;BME280;50592;52.958;-7.470;2023-02-18T10:14:40;100818.16;;;10.08;100.00
64253;BME280;50592;52.958;-7.470;2023-02-18T10:17:06;100812.38;;;10.14;100.00
64253;BME280;50592;52.958;-7.470;2023-02-18T10:19:37;100819.78;;;10.21;100.00
64253;BME280;50592;52.958;-7.470;2023-02-18T10:22:07;100810.34;;;10.28;100.00
64253;BME280;50592;52.958;-7.470;2023-02-18T10:24:43;100806.31;;;10.34;100.00
64253;BME280;50592;52.958;-7.470;2023-02-18T10:27:17;100812.91;;;10.39;100.00
64253;BME280;50592;52.958;-7.470;2023-02-18T10:29:45;100818.31;;;10.38;100.00
64253;BME280;50592;52.958;-7.470;2023-02-18T10:32:26;100818.63;;;10.45;100.00
64253;BME280;50592;52.958;-7.470;2023-02-18T10:35:10;100823.13;;;10.54;100.00
64253;BME280;50592;52.958;-7.470;2023-02-18T10:52:13;100813.91;;;10.48;100.00
64253;BME280;50592;52.958;-7.470;2023-02-18T10:55:04;100810.69;;;10.45;100.00
64253;BME280;50592;52.958;-7.470;2023-02-18T10:57:31;100790.38;;;10.45;100.00
64253;BME280;50592;52.958;-7.470;2023-02-18T11:02:40;100795.84;;;10.53;100.00
64253;BME280;50592;52.958;-7.470;2023-02-18T11:05:21;100797.69;;;10.63;100.00
64253;BME280;50592;52.958;-7.470;2023-02-18T11:07:50;100792.69;;;10.70;100.00
64253;BME280;50592;52.958;-7.470;2023-02-18T11:10:22;100791.56;;;10.72;100.00
64253;BME280;50592;52.958;-7.470;2023-02-18T11:12:57;100796.59;;;10.85;100.00
64253;BME280;50592;52.958;-7.470;2023-02-18T11:15:26;100790.34;;;10.96;100.00
64253;BME280;50592;52.958;-7.470;2023-02-18T11:17:55;100795.50;;;10.98;100.00
64253;BME280;50592;52.958;-7.470;2023-02-18T11:22:50;100791.75;;;11.00;100.00
64253;BME280;50592;52.958;-7.470;2023-02-18T11:25:20;100791.75;;;11.00;100.00
64253;BME280;50592;52.958;-7.470;2023-02-18T11:27:56;100793.84;;;10.97;100.00
64253;BME280;50592;52.958;-7.470;2023-02-18T11:30:35;100793.53;;;10.80;100.00
64253;BME280;50592;52.958;-7.470;2023-02-18T11:35:54;100804.94;;;10.81;100.00
64253;BME280;50592;52.958;-7.470;2023-02-18T11:38:27;100811.78;;;10.73;100.00
64253;BME280;50592;52.958;-7.470;2023-02-18T11:40:55;100820.94;;;10.69;100.00
64253;BME280;50592;52.958;-7.470;2023-02-18T11:43:28;100830.41;;;10.72;100.00
64253;BME280;50592;52.958;-7.470;2023-02-18T11:46:12;100840.56;;;10.76;100.00
64253;BME280;50592;52.958;-7.470;2023-02-18T11:48:38;100859.50;;;10.72;100.00
64253;BME280;50592;52.958;-7.470;2023-02-18T11:51:04;100844.03;;;10.67;100.00
64253;BME280;50592;52.958;-7.470;2023-02-18T11:53:34;100848.88;;;10.62;100.00
64253;BME280;50592;52.958;-7.470;2023-02-18T11:56:06;100852.75;;;10.58;100.00
64253;BME280;50592;52.958;-7.470;2023-02-18T11:58:45;100855.16;;;10.71;100.00
64253;BME280;50592;52.958;-7.470;2023-02-18T12:04:13;100872.59;;;10.83;100.00
64253;BME280;50592;52.958;-7.470;2023-02-18T12:07:00;100871.91;;;10.91;100.00
64253;BME280;50592;52.958;-7.470;2023-02-18T12:12:29;100866.22;;;10.96;100.00
64253;BME280;50592;52.958;-7.470;2023-02-18T12:14:56;100867.63;;;11.00;100.00
64253;BME280;50592;52.958;-7.470;2023-02-18T12:17:58;100858.00;;;11.09;100.00
64253;BME280;50592;52.958;-7.470;2023-02-18T12:21:04;100855.78;;;11.04;100.00
64253;BME280;50592;52.958;-7.470;2023-02-18T12:26:28;100851.72;;;10.90;100.00
64253;BME280;50592;52.958;-7.470;2023-02-18T12:32:10;100846.84;;;10.85;100.00
64253;BME280;50592;52.958;-7.470;2023-02-18T12:40:15;100834.09;;;11.30;100.00
64253;BME280;50592;52.958;-7.470;2023-02-18T12:42:53;100826.53;;;11.45;100.00
64253;BME280;50592;52.958;-7.470;2023-02-18T12:53:23;100816.06;;;11.63;100.00
64253;BME280;50592;52.958;-7.470;2023-02-18T13:01:31;100837.28;;;11.34;100.00
64253;BME280;50592;52.958;-7.470;2023-02-18T13:04:25;100843.28;;;11.26;100.00
64253;BME280;50592;52.958;-7.470;2023-02-18T13:07:06;100832.13;;;11.12;100.00
64253;BME280;50592;52.958;-7.470;2023-02-18T13:10:04;100824.06;;;11.14;100.00
64253;BME280;50592;52.958;-7.470;2023-02-18T13:13:20;100818.75;;;11.14;100.00
64253;BME280;50592;52.958;-7.470;2023-02-18T13:18:36;100826.56;;;11.15;100.00
64253;BME280;50592;52.958;-7.470;2023-02-18T13:23:34;100822.50;;;11.31;100.00
64253;BME280;50592;52.958;-7.470;2023-02-18T13:26:04;100831.03;;;11.45;100.00
64253;BME280;50592;52.958;-7.470;2023-02-18T13:28:39;100823.34;;;11.51;100.00
64253;BME280;50592;52.958;-7.470;2023-02-18T13:36:49;100820.38;;;11.64;100.00
64253;BME280;50592;52.958;-7.470;2023-02-18T13:39:20;100817.59;;;11.76;100.00
64253;BME280;50592;52.958;-7.470;2023-02-18T13:41:49;100791.66;;;11.79;100.00
64253;BME280;50592;52.958;-7.470;2023-02-18T13:46:57;100799.28;;;11.93;100.00
64253;BME280;50592;52.958;-7.470;2023-02-18T13:49:34;100793.66;;;12.06;100.00
64253;BME280;50592;52.958;-7.470;2023-02-18T13:52:02;100782.53;;;12.02;100.00
64253;BME280;50592;52.958;-7.470;2023-02-18T13:54:45;100790.34;;;11.94;100.00
64253;BME280;50592;52.958;-7.470;2023-02-18T13:57:14;100793.31;;;11.81;100.00
64253;BME280;50592;52.958;-7.470;2023-02-18T13:59:59;100788.19;;;11.69;100.00
64253;BME280;50592;52.958;-7.470;2023-02-18T14:02:34;100783.22;;;11.56;100.00
64253;BME280;50592;52.958;-7.470;2023-02-18T14:28:43;100767.66;;;11.23;100.00
64253;BME280;50592;52.958;-7.470;2023-02-18T14:51:54;100798.13;;;10.88;100.00
64253;BME280;50592;52.958;-7.470;2023-02-18T14:54:24;100819.28;;;10.88;100.00
64253;BME280;50592;52.958;-7.470;2023-02-18T14:56:58;100814.97;;;10.87;100.00
64253;BME280;50592;52.958;-7.470;2023-02-18T14:59:30;100834.88;;;10.81;100.00
64253;BME280;50592;52.958;-7.470;2023-02-18T15:01:59;100826.22;;;10.69;100.00
64253;BME280;50592;52.958;-7.470;2023-02-18T15:04:26;100832.31;;;10.60;100.00
64253;BME280;50592;52.958;-7.470;2023-02-18T15:07:01;100846.06;;;10.53;100.00
64253;BME280;50592;52.958;-7.470;2023-02-18T15:09:28;100837.84;;;10.47;100.00
64253;BME280;50592;52.958;-7.470;2023-02-18T15:12:05;100851.50;;;10.52;100.00
64253;BME280;50592;52.958;-7.470;2023-02-18T15:14:36;100848.13;;;10.50;100.00
64253;BME280;50592;52.958;-7.470;2023-02-18T15:17:05;100848.28;;;10.48;100.00
64253;BME280;50592;52.958;-7.470;2023-02-18T15:19:42;100838.84;;;10.56;100.00
64253;BME280;50592;52.958;-7.470;2023-02-18T15:22:22;100842.63;;;10.63;100.00
64253;BME280;50592;52.958;-7.470;2023-02-18T15:24:49;100837.59;;;10.60;100.00
64253;BME280;50592;52.958;-7.470;2023-02-18T15:27:20;100849.84;;;10.61;100.00